createdAt,value
2023-04-08T00:00:33.358Z,39.42
2023-04-08T00:03:01.849Z,43.67
2023-04-08T00:05:30.339Z,37.13
2023-04-08T00:07:58.534Z,37.97
2023-04-08T00:10:26.585Z,42.40
2023-04-08T00:12:55.554Z,41.08
2023-04-08T00:15:23.962Z,43.85
2023-04-08T00:17:54.570Z,50.17
2023-04-08T00:20:23.806Z,45.47
2023-04-08T00:22:51.785Z,49.83
2023-04-08T00:25:19.867Z,53.15
2023-04-08T00:27:47.905Z,55.95
2023-04-08T00:30:16.576Z,52.90
2023-04-08T00:32:44.871Z,51.85
2023-04-08T00:35:14.276Z,42.05
2023-04-08T00:37:42.634Z,53.38
2023-04-08T00:40:11.529Z,47.17
2023-04-08T00:42:39.976Z,52.92
2023-04-08T00:45:09.334Z,48.35
2023-04-08T00:47:38.462Z,57.88
2023-04-08T00:50:09.635Z,49.03
2023-04-08T00:52:39.374Z,51.05
2023-04-08T00:55:08.512Z,50.90
2023-04-08T00:57:36.892Z,56.67
2023-04-08T01:00:06.674Z,51.00
2023-04-08T01:02:41.613Z,53.03
2023-04-08T01:05:16.272Z,46.03
2023-04-08T01:07:51.562Z,50.53
2023-04-08T01:10:23.379Z,46.08
2023-04-08T01:12:56.375Z,52.65
2023-04-08T01:15:26.219Z,51.80
2023-04-08T01:17:59.059Z,53.58
2023-04-08T01:20:34.000Z,52.20
2023-04-08T01:23:18.023Z,48.75
2023-04-08T01:25:54.829Z,55.88
2023-04-08T01:28:30.842Z,52.20
2023-04-08T01:31:05.096Z,52.75
2023-04-08T01:33:38.604Z,49.08
2023-04-08T01:36:11.217Z,45.67
2023-04-08T01:38:44.356Z,51.75
2023-04-08T01:41:19.700Z,48.70
2023-04-08T01:43:50.002Z,51.67
2023-04-08T01:46:18.528Z,55.03
2023-04-08T01:48:48.954Z,54.22
2023-04-08T01:51:18.833Z,54.08
2023-04-08T01:53:46.836Z,56.45
2023-04-08T01:56:17.614Z,53.05
2023-04-08T01:58:50.433Z,51.08
2023-04-08T02:01:22.337Z,50.10
2023-04-08T02:03:52.634Z,51.85
2023-04-08T02:06:20.687Z,47.38
2023-04-08T02:08:49.158Z,54.03
2023-04-08T02:11:18.710Z,49.17
2023-04-08T02:13:49.844Z,62.67
2023-04-08T02:16:26.341Z,52.97
2023-04-08T02:18:59.702Z,50.20
2023-04-08T02:21:34.373Z,33.15
2023-04-08T02:24:09.418Z,30.63
2023-04-08T02:26:41.141Z,34.50
2023-04-08T02:29:13.565Z,43.00
2023-04-08T02:31:43.632Z,53.95
2023-04-08T02:34:13.344Z,44.45
2023-04-08T02:36:43.023Z,47.53
2023-04-08T02:39:11.489Z,47.90
2023-04-08T02:41:41.617Z,51.67
2023-04-08T02:44:10.977Z,51.17
2023-04-08T02:46:39.007Z,46.10
2023-04-08T02:49:06.997Z,48.95
2023-04-08T02:51:35.021Z,47.60
2023-04-08T02:54:03.307Z,50.97
2023-04-08T02:56:31.654Z,48.25
2023-04-08T02:59:01.392Z,55.75
2023-04-08T03:01:29.539Z,50.53
2023-04-08T03:03:57.711Z,54.67
2023-04-08T03:06:26.000Z,55.83
2023-04-08T03:08:53.978Z,52.03
2023-04-08T03:11:22.071Z,57.28
2023-04-08T03:13:50.061Z,66.85
2023-04-08T03:16:19.600Z,56.70
2023-04-08T03:18:47.630Z,66.43
2023-04-08T03:21:15.917Z,59.17
2023-04-08T03:23:44.028Z,62.00
2023-04-08T03:26:12.085Z,56.53
2023-04-08T03:28:40.126Z,64.07
2023-04-08T03:31:08.353Z,64.97
2023-04-08T03:33:37.732Z,63.60
2023-04-08T03:36:06.380Z,56.20
2023-04-08T03:38:34.251Z,58.83
2023-04-08T03:41:02.565Z,70.97
2023-04-08T03:43:30.781Z,64.40
2023-04-08T03:45:58.686Z,59.35
2023-04-08T03:48:26.736Z,63.78
2023-04-08T03:50:56.033Z,57.28
2023-04-08T03:53:24.387Z,64.28
2023-04-08T03:55:52.365Z,67.45
2023-04-08T03:58:20.374Z,59.45
2023-04-08T04:00:48.361Z,55.75
2023-04-08T04:03:16.549Z,69.18
2023-04-08T04:05:44.511Z,72.55
2023-04-08T04:08:13.749Z,58.15
2023-04-08T04:10:41.727Z,58.92
2023-04-08T04:13:09.742Z,67.70
2023-04-08T04:15:39.848Z,60.33
2023-04-08T04:18:07.994Z,55.90
2023-04-08T04:20:38.258Z,68.90
2023-04-08T04:23:06.415Z,64.18
2023-04-08T04:25:35.832Z,61.78
2023-04-08T04:28:04.164Z,59.92
2023-04-08T04:30:32.068Z,61.63
2023-04-08T04:33:00.627Z,60.65
2023-04-08T04:35:28.676Z,58.22
2023-04-08T04:37:56.930Z,64.57
2023-04-08T04:40:25.147Z,67.03
2023-04-08T04:42:54.532Z,69.55
2023-04-08T04:45:22.444Z,66.10
2023-04-08T04:47:50.660Z,65.22
2023-04-08T04:50:18.765Z,64.90
2023-04-08T04:52:46.699Z,71.45
2023-04-08T04:55:15.798Z,69.70
2023-04-08T04:57:44.490Z,68.22
2023-04-08T05:00:14.459Z,73.70
2023-04-08T05:02:42.640Z,74.20
2023-04-08T05:05:11.181Z,53.05
2023-04-08T05:07:39.565Z,54.17
2023-04-08T05:10:08.231Z,76.20
2023-04-08T05:12:37.833Z,70.65
2023-04-08T05:15:06.647Z,81.00
2023-04-08T05:17:36.265Z,58.25
2023-04-08T05:20:04.625Z,62.25
2023-04-08T05:22:32.634Z,63.08
2023-04-08T05:25:00.804Z,64.57
2023-04-08T05:27:29.068Z,68.78
2023-04-08T05:29:57.170Z,65.78
2023-04-08T05:32:25.505Z,59.47
2023-04-08T05:34:55.281Z,60.83
2023-04-08T05:37:23.374Z,69.07
2023-04-08T05:39:51.502Z,61.70
2023-04-08T05:42:20.045Z,57.97
2023-04-08T05:44:48.073Z,62.55
2023-04-08T05:47:16.416Z,59.10
2023-04-08T05:49:44.860Z,60.22
2023-04-08T05:52:14.380Z,66.05
2023-04-08T05:54:44.500Z,69.03
2023-04-08T05:57:12.686Z,59.20
2023-04-08T05:59:40.860Z,59.47
2023-04-08T06:02:09.358Z,62.22
2023-04-08T06:04:37.818Z,59.72
2023-04-08T06:07:06.702Z,58.97
2023-04-08T06:09:38.436Z,52.70
2023-04-08T06:12:07.028Z,63.92
2023-04-08T06:14:35.238Z,59.05
2023-04-08T06:17:03.342Z,63.13
2023-04-08T06:19:31.553Z,73.55
2023-04-08T06:22:00.037Z,74.82
2023-04-08T06:24:31.536Z,61.42
2023-04-08T06:27:01.117Z,71.35
2023-04-08T06:29:30.082Z,76.50
2023-04-08T06:31:58.316Z,64.43
2023-04-08T06:34:26.709Z,67.85
2023-04-08T06:36:54.969Z,71.07
2023-04-08T06:39:23.782Z,69.72
2023-04-08T06:41:52.459Z,76.40
2023-04-08T06:44:22.024Z,72.95
2023-04-08T06:46:50.124Z,70.93
2023-04-08T06:49:18.227Z,61.65
2023-04-08T06:51:47.921Z,77.53
2023-04-08T06:54:16.050Z,61.22
2023-04-08T06:56:45.430Z,56.65
2023-04-08T06:59:18.816Z,52.05
2023-04-08T07:01:48.588Z,48.85
2023-04-08T07:04:17.186Z,46.65
2023-04-08T07:06:45.900Z,51.63
2023-04-08T07:09:13.993Z,47.60
2023-04-08T07:11:42.059Z,49.03
2023-04-08T07:14:10.163Z,44.80
2023-04-08T07:16:38.268Z,54.90
2023-04-08T07:19:07.626Z,53.17
2023-04-08T07:21:36.416Z,51.33
2023-04-08T07:24:04.426Z,40.22
2023-04-08T07:26:32.889Z,50.40
2023-04-08T07:29:01.219Z,44.60
2023-04-08T07:31:29.392Z,42.35
2023-04-08T07:33:57.579Z,49.28
2023-04-08T07:36:26.983Z,55.47
2023-04-08T07:38:55.176Z,56.78
2023-04-08T07:41:23.162Z,62.90
2023-04-08T07:43:51.275Z,75.90
2023-04-08T07:46:20.129Z,54.30
2023-04-08T07:48:48.378Z,61.60
2023-04-08T07:51:16.970Z,64.97
2023-04-08T07:53:49.974Z,103.05
2023-04-08T07:56:18.727Z,44.17
2023-04-08T07:58:47.931Z,46.53
2023-04-08T08:01:18.007Z,50.08
2023-04-08T08:03:48.049Z,57.22
2023-04-08T08:06:16.682Z,38.38
2023-04-08T08:08:45.004Z,43.40
2023-04-08T08:11:14.540Z,45.85
2023-04-08T08:13:42.924Z,43.80
2023-04-08T08:16:12.065Z,51.00
2023-04-08T08:18:40.610Z,54.20
2023-04-08T08:21:09.732Z,43.65
2023-04-08T08:23:38.720Z,41.22
2023-04-08T08:26:10.011Z,54.42
2023-04-08T08:28:41.815Z,53.22
2023-04-08T08:31:09.922Z,42.15
2023-04-08T08:33:38.809Z,41.95
2023-04-08T08:36:07.695Z,40.33
2023-04-08T08:38:36.008Z,41.53
2023-04-08T08:41:04.792Z,41.90
2023-04-08T08:43:34.187Z,37.63
2023-04-08T08:46:03.816Z,41.45
2023-04-08T08:48:32.928Z,45.88
2023-04-08T08:51:01.457Z,54.72
2023-04-08T08:53:35.706Z,44.47
2023-04-08T08:58:35.521Z,42.95
2023-04-08T09:01:05.160Z,48.92
2023-04-08T09:03:33.567Z,44.42
2023-04-08T09:06:03.993Z,46.58
2023-04-08T09:08:34.200Z,46.63
2023-04-08T09:11:16.479Z,47.83
2023-04-08T09:13:48.559Z,38.22
2023-04-08T09:16:19.961Z,37.30
2023-04-08T09:18:49.775Z,47.40
2023-04-08T09:21:19.025Z,39.50
2023-04-08T09:23:49.591Z,38.78
2023-04-08T09:26:20.066Z,47.38
2023-04-08T09:29:04.074Z,41.63
2023-04-08T09:31:41.922Z,42.67
2023-04-08T09:34:13.386Z,41.47
2023-04-08T09:36:41.454Z,37.95
2023-04-08T09:39:09.505Z,41.20
2023-04-08T09:41:39.022Z,41.13
2023-04-08T09:44:09.501Z,42.45
2023-04-08T09:47:01.722Z,38.20
2023-04-08T09:49:36.589Z,40.33
2023-04-08T09:52:08.987Z,47.42
2023-04-08T09:54:45.580Z,46.15
2023-04-08T09:57:22.898Z,42.53
2023-04-08T10:00:08.268Z,49.22
2023-04-08T10:02:52.109Z,44.53
2023-04-08T10:05:25.152Z,46.00
2023-04-08T10:07:59.254Z,51.30
2023-04-08T10:10:28.338Z,46.08
2023-04-08T10:12:58.623Z,58.78
2023-04-08T10:15:30.389Z,68.03
2023-04-08T10:18:38.207Z,60.10
2023-04-08T10:21:38.653Z,58.70
2023-04-08T10:24:13.555Z,51.03
2023-04-08T10:26:46.991Z,51.03
2023-04-08T10:29:36.182Z,42.55
2023-04-08T10:32:07.433Z,45.55
2023-04-08T10:34:58.535Z,48.08
2023-04-08T10:37:31.548Z,42.33
2023-04-08T10:40:02.774Z,42.15
2023-04-08T10:42:34.145Z,48.15
2023-04-08T10:45:06.013Z,60.42
2023-04-08T10:47:38.947Z,48.10
2023-04-08T10:50:23.628Z,52.72
2023-04-08T10:52:57.313Z,47.85
2023-04-08T10:55:29.005Z,51.95
2023-04-08T10:58:08.471Z,50.45
2023-04-08T11:00:40.898Z,42.97
2023-04-08T11:03:12.478Z,45.58
2023-04-08T11:05:43.769Z,37.85
2023-04-08T11:08:12.117Z,37.58
2023-04-08T11:10:40.559Z,39.20
2023-04-08T11:13:10.685Z,50.47
2023-04-08T11:15:38.838Z,45.03
2023-04-08T11:18:07.361Z,47.03
2023-04-08T11:20:40.430Z,34.65
2023-04-08T11:23:19.844Z,50.65
2023-04-08T11:25:48.612Z,36.78
2023-04-08T11:28:18.413Z,40.90
2023-04-08T11:30:48.282Z,46.47
2023-04-08T11:33:16.769Z,51.47
2023-04-08T11:35:46.139Z,44.40
2023-04-08T11:38:14.187Z,39.60
2023-04-08T11:40:54.175Z,40.25
2023-04-08T11:43:22.335Z,41.35
2023-04-08T11:45:50.872Z,43.40
2023-04-08T11:48:18.929Z,45.50
2023-04-08T11:50:46.939Z,45.47
2023-04-08T11:53:19.794Z,41.97
2023-04-08T11:55:49.783Z,46.00
2023-04-08T11:58:17.819Z,48.78
2023-04-08T12:00:46.174Z,41.30
2023-04-08T12:03:14.559Z,61.63
2023-04-08T12:05:42.763Z,42.42
2023-04-08T12:08:11.064Z,62.83
2023-04-08T12:10:41.820Z,44.05
2023-04-08T12:13:11.526Z,43.65
2023-04-08T12:15:39.495Z,41.17
2023-04-08T12:18:07.808Z,52.30
2023-04-08T12:20:35.955Z,43.63
2023-04-08T12:23:04.005Z,47.28
2023-04-08T12:25:32.645Z,50.72
2023-04-08T12:28:00.700Z,40.22
2023-04-08T12:30:33.257Z,47.10
2023-04-08T12:33:01.422Z,48.97
2023-04-08T12:35:29.551Z,42.10
2023-04-08T12:37:57.423Z,45.88
2023-04-08T12:40:25.431Z,47.85
2023-04-08T12:42:53.370Z,46.45
2023-04-08T12:45:21.414Z,41.28
2023-04-08T12:47:50.774Z,49.30
2023-04-08T12:50:18.986Z,45.83
2023-04-08T12:52:47.031Z,44.25
2023-04-08T12:55:15.413Z,46.30
2023-04-08T12:57:43.553Z,31.63
2023-04-08T13:00:12.686Z,49.03
2023-04-08T13:02:42.237Z,51.85
2023-04-08T13:05:12.133Z,48.08
2023-04-08T13:07:40.593Z,50.17
2023-04-08T13:10:10.438Z,48.00
2023-04-08T13:12:40.344Z,48.95
2023-04-08T13:15:10.112Z,31.45
2023-04-08T13:17:38.166Z,31.67
2023-04-08T13:20:08.665Z,30.92
2023-04-08T13:22:38.080Z,25.85
2023-04-08T13:25:07.257Z,31.52
2023-04-08T13:27:35.312Z,35.28
2023-04-08T13:30:03.500Z,29.02
2023-04-08T13:32:31.570Z,24.13
2023-04-08T13:34:59.498Z,18.67
2023-04-08T13:37:27.621Z,20.73
2023-04-08T13:39:56.956Z,62.15
2023-04-08T13:42:25.154Z,23.50
2023-04-08T13:44:53.499Z,20.80
2023-04-08T13:47:21.488Z,18.48
2023-04-08T13:49:49.524Z,24.13
2023-04-08T13:52:17.415Z,31.08
2023-04-08T13:54:45.455Z,27.20
2023-04-08T13:57:14.737Z,28.08
2023-04-08T13:59:44.431Z,21.45
2023-04-08T14:02:13.152Z,30.95
2023-04-08T14:04:41.632Z,25.65
2023-04-08T14:07:09.929Z,22.08
2023-04-08T14:09:37.846Z,22.30
2023-04-08T14:12:05.969Z,29.77
2023-04-08T14:14:35.464Z,22.45
2023-04-08T14:17:03.561Z,25.73
2023-04-08T14:19:32.313Z,24.83
2023-04-08T14:22:00.211Z,23.08
2023-04-08T14:24:28.377Z,21.00
2023-04-08T14:26:56.399Z,19.70
2023-04-08T14:29:26.430Z,16.73
2023-04-08T14:31:56.840Z,25.48
2023-04-08T14:34:25.577Z,20.67
2023-04-08T14:36:53.521Z,20.98
2023-04-08T14:39:21.759Z,27.38
2023-04-08T14:41:49.680Z,19.90
2023-04-08T14:44:17.814Z,27.98
2023-04-08T14:46:45.870Z,22.02
2023-04-08T14:49:15.307Z,21.33
2023-04-08T14:51:43.487Z,22.67
2023-04-08T14:54:14.169Z,30.63
2023-04-08T14:56:42.154Z,23.92
2023-04-08T14:59:10.570Z,26.90
2023-04-08T15:01:41.583Z,17.85
2023-04-08T15:04:11.946Z,19.25
2023-04-08T15:06:41.519Z,18.95
2023-04-08T15:09:09.669Z,22.70
2023-04-08T15:11:37.749Z,24.67
2023-04-08T15:14:06.064Z,21.75
2023-04-08T15:16:34.081Z,22.25
2023-04-08T15:19:02.377Z,24.85
2023-04-08T15:21:31.186Z,31.60
2023-04-08T15:24:00.592Z,36.17
2023-04-08T15:26:28.751Z,26.50
2023-04-08T15:28:58.911Z,24.35
2023-04-08T15:31:27.395Z,23.95
2023-04-08T15:33:55.415Z,23.52
2023-04-08T15:36:23.805Z,28.50
2023-04-08T15:38:52.727Z,33.13
2023-04-08T15:41:22.899Z,32.20
2023-04-08T15:43:51.323Z,22.00
2023-04-08T15:46:20.751Z,35.78
2023-04-08T15:48:49.387Z,21.75
2023-04-08T15:51:17.790Z,40.20
2023-04-08T15:53:45.734Z,33.08
2023-04-08T15:56:16.456Z,35.70
2023-04-08T15:58:48.192Z,30.08
2023-04-08T16:01:16.948Z,31.80
2023-04-08T16:03:45.566Z,24.63
2023-04-08T16:06:13.660Z,29.63
2023-04-08T16:08:42.187Z,27.55
2023-04-08T16:11:10.432Z,35.08
2023-04-08T16:13:40.631Z,25.48
2023-04-08T16:16:12.621Z,30.60
2023-04-08T16:18:41.647Z,33.47
2023-04-08T16:21:10.258Z,25.77
2023-04-08T16:23:38.660Z,33.17
2023-04-08T16:26:08.131Z,34.35
2023-04-08T16:28:38.090Z,25.73
2023-04-08T16:31:08.151Z,35.55
2023-04-08T16:33:40.841Z,38.00
2023-04-08T16:36:08.957Z,35.55
2023-04-08T16:38:37.741Z,35.38
2023-04-08T16:41:06.426Z,36.78
2023-04-08T16:43:37.429Z,41.70
2023-04-08T16:46:18.337Z,31.00
2023-04-08T16:48:55.076Z,29.90
2023-04-08T16:51:27.422Z,42.08
2023-04-08T16:54:00.708Z,26.98
2023-04-08T16:56:32.058Z,31.90
2023-04-08T16:59:01.644Z,37.42
2023-04-08T17:01:30.049Z,38.33
2023-04-08T17:03:59.980Z,27.08
2023-04-08T17:06:31.357Z,25.80
2023-04-08T17:08:59.240Z,32.95
2023-04-08T17:11:27.175Z,28.27
2023-04-08T17:13:55.342Z,18.63
2023-04-08T17:16:23.324Z,30.63
2023-04-08T17:18:51.867Z,25.40
2023-04-08T17:21:21.756Z,29.33
2023-04-08T17:23:50.283Z,33.83
2023-04-08T17:26:18.781Z,26.30
2023-04-08T17:28:47.813Z,30.77
2023-04-08T17:31:15.958Z,30.63
2023-04-08T17:33:44.088Z,23.05
2023-04-08T17:36:12.379Z,31.35
2023-04-08T17:38:41.988Z,27.75
2023-04-08T17:41:10.230Z,32.47
2023-04-08T17:43:38.285Z,26.67
2023-04-08T17:46:06.467Z,26.95
2023-04-08T17:48:34.799Z,28.33
2023-04-08T17:51:03.503Z,41.90
2023-04-08T17:53:32.076Z,45.10
2023-04-08T17:56:01.712Z,34.67
2023-04-08T17:58:29.775Z,39.03
2023-04-08T18:00:57.877Z,33.70
2023-04-08T18:03:26.307Z,38.90
2023-04-08T18:05:55.339Z,31.45
2023-04-08T18:08:24.762Z,29.85
2023-04-08T18:10:53.347Z,30.63
2023-04-08T18:13:22.736Z,31.17
2023-04-08T18:15:50.765Z,25.17
2023-04-08T18:18:20.284Z,33.15
2023-04-08T18:20:48.501Z,33.15
2023-04-08T18:23:16.691Z,35.67
2023-04-08T18:25:47.371Z,33.25
2023-04-08T18:28:15.671Z,33.95
2023-04-08T18:30:45.437Z,30.05
2023-04-08T18:33:13.465Z,26.17
2023-04-08T18:35:41.689Z,40.33
2023-04-08T18:38:09.903Z,34.80
2023-04-08T18:40:39.122Z,31.60
2023-04-08T18:43:07.170Z,31.63
2023-04-08T18:45:35.545Z,35.60
2023-04-08T18:48:05.716Z,36.13
2023-04-08T18:50:33.833Z,34.00
2023-04-08T18:53:01.997Z,32.53
2023-04-08T18:55:30.407Z,40.75
2023-04-08T18:57:58.571Z,28.05
2023-04-08T19:00:26.826Z,31.55
2023-04-08T19:02:54.904Z,31.75
2023-04-08T19:05:24.486Z,33.85
2023-04-08T19:07:53.159Z,29.95
2023-04-08T19:10:23.571Z,27.90
2023-04-08T19:12:51.527Z,35.90
2023-04-08T19:15:19.769Z,27.83
2023-04-08T19:17:47.899Z,27.58
2023-04-08T19:20:16.391Z,27.05
2023-04-08T19:22:47.972Z,31.58
2023-04-08T19:25:16.185Z,26.38
2023-04-08T19:27:45.935Z,41.28
2023-04-08T19:30:14.317Z,33.50
2023-04-08T19:32:43.236Z,33.50
2023-04-08T19:35:13.662Z,37.08
2023-04-08T19:37:41.760Z,33.60
2023-04-08T19:40:12.015Z,39.70
2023-04-08T19:42:40.031Z,35.40
2023-04-08T19:45:11.087Z,31.55
2023-04-08T19:47:39.824Z,32.65
2023-04-08T19:50:12.986Z,28.58
2023-04-08T19:52:40.989Z,37.03
2023-04-08T19:55:10.346Z,31.75
2023-04-08T19:57:40.404Z,34.70
2023-04-08T20:00:11.349Z,36.80
2023-04-08T20:02:41.058Z,42.58
2023-04-08T20:05:15.005Z,35.33
2023-04-08T20:07:43.080Z,34.45
2023-04-08T20:10:12.355Z,34.65
2023-04-08T20:12:42.266Z,38.80
2023-04-08T20:15:23.008Z,29.95
2023-04-08T20:17:53.220Z,32.95
2023-04-08T20:20:21.800Z,38.90
2023-04-08T20:22:50.357Z,32.35
2023-04-08T20:25:18.711Z,34.85
2023-04-08T20:27:48.398Z,34.30
2023-04-08T20:30:16.773Z,36.50
2023-04-08T20:32:44.932Z,35.75
2023-04-08T20:35:13.437Z,30.27
2023-04-08T20:37:41.596Z,40.13
2023-04-08T20:40:10.638Z,25.65
2023-04-08T20:42:38.714Z,31.92
2023-04-08T20:45:10.554Z,23.35
2023-04-08T20:47:38.827Z,27.90
2023-04-08T20:50:09.272Z,26.02
2023-04-08T20:52:37.184Z,39.75
2023-04-08T20:55:07.966Z,32.47
2023-04-08T20:57:36.879Z,29.55
2023-04-08T21:00:06.213Z,30.98
2023-04-08T21:02:36.761Z,32.08
2023-04-08T21:05:06.140Z,20.05
2023-04-08T21:07:34.329Z,31.05
2023-04-08T21:10:02.841Z,23.85
2023-04-08T21:12:31.131Z,26.02
2023-04-08T21:14:59.027Z,26.77
2023-04-08T21:17:30.866Z,26.45
2023-04-08T21:20:00.397Z,18.55
2023-04-08T21:22:28.897Z,19.60
2023-04-08T21:24:58.180Z,21.75
2023-04-08T21:27:26.123Z,21.98
2023-04-08T21:29:54.023Z,27.52
2023-04-08T21:32:22.549Z,28.40
2023-04-08T21:34:53.393Z,28.15
2023-04-08T21:37:23.837Z,24.33
2023-04-08T21:39:52.833Z,21.60
2023-04-08T21:42:22.817Z,24.05
2023-04-08T21:44:51.054Z,25.15
2023-04-08T21:47:19.169Z,30.63
2023-04-08T21:49:47.158Z,32.63
2023-04-08T21:52:15.545Z,31.45
2023-04-08T21:54:44.954Z,37.10
2023-04-08T21:57:13.098Z,29.67
2023-04-08T21:59:41.011Z,31.02
2023-04-08T22:02:11.445Z,36.10
2023-04-08T22:04:40.166Z,32.80
2023-04-08T22:07:11.429Z,27.40
2023-04-08T22:09:39.385Z,25.27
2023-04-08T22:12:11.625Z,26.55
2023-04-08T22:14:40.649Z,25.92
2023-04-08T22:17:12.018Z,28.40
2023-04-08T22:19:43.319Z,29.92
2023-04-08T22:22:13.222Z,30.25
2023-04-08T22:24:42.380Z,39.47
2023-04-08T22:27:13.645Z,27.20
2023-04-08T22:29:42.342Z,33.97
2023-04-08T22:32:12.085Z,33.67
2023-04-08T22:34:41.770Z,30.38
2023-04-08T22:37:12.258Z,29.05
2023-04-08T22:39:42.865Z,31.67
2023-04-08T22:42:13.581Z,33.20
2023-04-08T22:44:43.828Z,27.33
2023-04-08T22:47:14.531Z,24.00
2023-04-08T22:49:45.348Z,34.13
2023-04-08T22:52:14.668Z,30.55
2023-04-08T22:54:45.003Z,32.75
2023-04-08T22:57:16.998Z,28.08
2023-04-08T22:59:47.324Z,40.50
2023-04-08T23:02:17.218Z,33.92
2023-04-08T23:04:47.164Z,29.92
2023-04-08T23:07:16.588Z,19.15
2023-04-08T23:09:45.829Z,27.55
2023-04-08T23:12:18.043Z,30.45
2023-04-08T23:14:47.999Z,31.02
2023-04-08T23:17:17.509Z,26.83
2023-04-08T23:19:47.468Z,26.27
2023-04-08T23:22:17.663Z,26.50
2023-04-08T23:24:47.987Z,31.50
2023-04-08T23:27:19.561Z,32.60
2023-04-08T23:29:49.910Z,34.15
2023-04-08T23:32:20.063Z,25.35
2023-04-08T23:34:50.456Z,29.10
2023-04-08T23:37:21.523Z,22.35
2023-04-08T23:39:51.672Z,35.53
2023-04-08T23:42:27.522Z,26.10
2023-04-08T23:44:57.659Z,29.25
2023-04-08T23:47:29.595Z,24.70
2023-04-08T23:50:00.155Z,27.90
2023-04-08T23:52:30.297Z,24.67
2023-04-08T23:54:58.695Z,22.23
2023-04-08T23:57:28.089Z,23.98
2023-04-08T23:59:56.266Z,36.25
